createdAt,value
2022-11-20T00:01:10.418Z,2.20
2022-11-20T00:03:59.450Z,2.30
2022-11-20T00:06:48.817Z,2.13
2022-11-20T00:09:36.684Z,1.73
2022-11-20T00:12:24.562Z,1.90
2022-11-20T00:15:12.401Z,2.33
2022-11-20T00:18:00.273Z,2.10
2022-11-20T00:20:47.552Z,2.50
2022-11-20T00:23:36.792Z,2.40
2022-11-20T00:26:26.313Z,2.30
2022-11-20T00:29:14.219Z,2.47
2022-11-20T00:32:01.621Z,2.43
2022-11-20T00:34:48.891Z,2.30
2022-11-20T00:37:36.573Z,2.00
2022-11-20T00:40:24.476Z,2.37
2022-11-20T00:43:11.756Z,2.17
2022-11-20T00:46:00.709Z,2.40
2022-11-20T00:48:48.497Z,2.70
2022-11-20T00:51:36.380Z,2.13
2022-11-20T00:54:23.766Z,1.97
2022-11-20T00:57:11.634Z,2.07
2022-11-20T00:59:59.509Z,2.67
2022-11-20T01:02:46.709Z,2.10
2022-11-20T01:05:36.273Z,2.47
2022-11-20T01:08:24.135Z,1.70
2022-11-20T01:11:15.269Z,2.70
2022-11-20T01:14:04.605Z,2.50
2022-11-20T01:16:53.162Z,2.00
2022-11-20T01:19:40.559Z,2.37
2022-11-20T01:22:28.463Z,2.17
2022-11-20T01:25:15.863Z,2.33
2022-11-20T01:28:03.301Z,2.30
2022-11-20T01:30:50.714Z,2.23
2022-11-20T01:33:38.572Z,2.40
2022-11-20T01:36:27.535Z,2.33
2022-11-20T01:39:17.200Z,2.10
2022-11-20T01:42:23.761Z,2.33
2022-11-20T01:45:29.987Z,2.47
2022-11-20T01:48:18.259Z,1.90
2022-11-20T01:51:07.747Z,2.40
2022-11-20T01:53:56.297Z,2.30
2022-11-20T01:56:45.459Z,2.20
2022-11-20T01:59:32.795Z,2.37
2022-11-20T02:02:20.226Z,2.30
2022-11-20T02:05:19.943Z,2.00
2022-11-20T02:08:08.542Z,1.83
2022-11-20T02:10:55.752Z,2.10
2022-11-20T02:13:46.953Z,2.53
2022-11-20T02:16:37.108Z,3.03
2022-11-20T02:19:32.617Z,2.50
2022-11-20T02:22:22.912Z,2.03
2022-11-20T02:25:10.714Z,2.47
2022-11-20T02:27:58.599Z,2.60
2022-11-20T02:30:45.979Z,2.47
2022-11-20T02:33:33.661Z,2.43
2022-11-20T02:36:21.288Z,2.37
2022-11-20T02:39:08.728Z,2.63
2022-11-20T02:41:57.956Z,2.70
2022-11-20T02:44:45.361Z,2.63
2022-11-20T02:47:34.190Z,2.10
2022-11-20T02:50:21.956Z,2.30
2022-11-20T02:53:09.723Z,2.80
2022-11-20T02:55:57.530Z,2.37
2022-11-20T02:58:45.035Z,2.97
2022-11-20T03:01:33.000Z,2.40
2022-11-20T03:04:21.285Z,2.40
2022-11-20T03:07:09.331Z,2.10
2022-11-20T03:09:57.246Z,2.40
2022-11-20T03:12:45.137Z,2.40
2022-11-20T03:15:32.848Z,2.33
2022-11-20T03:18:20.237Z,2.47
2022-11-20T03:21:07.942Z,2.30
2022-11-20T03:23:56.538Z,2.57
2022-11-20T03:26:44.464Z,2.30
2022-11-20T03:29:31.868Z,2.40
2022-11-20T03:32:19.729Z,2.60
2022-11-20T03:35:07.269Z,2.30
2022-11-20T03:37:55.165Z,2.60
2022-11-20T03:40:42.546Z,2.67
2022-11-20T03:43:30.495Z,2.50
2022-11-20T03:46:18.187Z,2.27
2022-11-20T03:49:06.494Z,2.67
2022-11-20T03:51:53.886Z,2.30
2022-11-20T03:54:41.842Z,2.80
2022-11-20T03:57:29.235Z,2.07
2022-11-20T04:00:17.150Z,2.50
2022-11-20T04:03:05.320Z,2.47
2022-11-20T04:05:52.982Z,2.57
2022-11-20T04:08:40.710Z,2.43
2022-11-20T04:11:30.061Z,2.70
2022-11-20T04:14:17.739Z,2.80
2022-11-20T04:17:06.042Z,2.53
2022-11-20T04:19:53.918Z,2.93
2022-11-20T04:22:41.105Z,2.70
2022-11-20T04:25:28.551Z,2.23
2022-11-20T04:28:15.949Z,2.33
2022-11-20T04:31:07.849Z,2.13
2022-11-20T04:33:55.092Z,2.50
2022-11-20T04:36:43.826Z,2.43
2022-11-20T04:39:31.241Z,2.60
2022-11-20T04:42:31.143Z,2.90
2022-11-20T04:45:18.586Z,2.50
2022-11-20T04:48:06.651Z,2.53
2022-11-20T04:50:54.504Z,2.73
2022-11-20T04:53:42.393Z,2.80
2022-11-20T04:56:29.849Z,2.47
2022-11-20T04:59:17.747Z,2.53
2022-11-20T05:02:05.200Z,2.70
2022-11-20T05:04:53.092Z,2.43
2022-11-20T05:07:40.524Z,2.67
2022-11-20T05:10:28.739Z,3.67
2022-11-20T05:13:16.594Z,3.00
2022-11-20T05:16:05.275Z,3.10
2022-11-20T05:18:53.931Z,3.00
2022-11-20T05:21:41.620Z,2.80
2022-11-20T05:24:29.512Z,3.17
2022-11-20T05:27:17.437Z,2.33
2022-11-20T05:30:05.872Z,2.93
2022-11-20T05:32:53.073Z,2.77
2022-11-20T05:35:40.732Z,2.47
2022-11-20T05:38:27.946Z,2.90
2022-11-20T05:41:16.737Z,2.57
2022-11-20T05:44:04.154Z,2.70
2022-11-20T05:46:52.106Z,3.00
2022-11-20T05:49:39.985Z,2.53
2022-11-20T05:52:30.733Z,2.50
2022-11-20T05:55:18.204Z,3.07
2022-11-20T05:58:06.058Z,2.70
2022-11-20T06:00:53.348Z,2.47
2022-11-20T06:03:42.079Z,2.73
2022-11-20T06:06:29.974Z,2.30
2022-11-20T06:09:17.380Z,2.23
2022-11-20T06:12:05.397Z,2.30
2022-11-20T06:14:53.261Z,2.07
2022-11-20T06:17:41.139Z,2.80
2022-11-20T06:20:29.007Z,2.27
2022-11-20T06:23:16.714Z,2.93
2022-11-20T06:26:05.833Z,2.30
2022-11-20T06:28:53.536Z,2.10
2022-11-20T06:31:43.778Z,1.97
2022-11-20T06:34:31.691Z,2.40
2022-11-20T06:37:19.637Z,2.27
2022-11-20T06:40:07.509Z,2.13
2022-11-20T06:42:55.777Z,2.03
2022-11-20T06:45:43.710Z,2.10
2022-11-20T06:48:31.804Z,2.20
2022-11-20T06:51:19.329Z,1.90
2022-11-20T06:54:07.269Z,1.87
2022-11-20T06:56:54.464Z,2.20
2022-11-20T06:59:42.156Z,2.10
2022-11-20T07:02:29.353Z,1.93
2022-11-20T07:05:17.239Z,2.27
2022-11-20T07:08:06.018Z,1.60
2022-11-20T07:10:53.825Z,1.63
2022-11-20T07:13:41.708Z,1.77
2022-11-20T07:16:28.929Z,1.60
2022-11-20T07:19:16.874Z,1.33
2022-11-20T07:22:04.745Z,1.20
2022-11-20T07:24:52.430Z,2.00
2022-11-20T07:27:39.928Z,1.70
2022-11-20T07:30:28.045Z,1.87
2022-11-20T07:33:15.411Z,1.90
2022-11-20T07:36:03.080Z,1.67
2022-11-20T07:38:51.046Z,2.27
2022-11-20T07:41:38.238Z,2.33
2022-11-20T07:44:26.117Z,1.97
2022-11-20T07:47:13.511Z,2.10
2022-11-20T07:50:01.396Z,2.10
2022-11-20T07:52:49.109Z,2.10
2022-11-20T07:55:37.520Z,2.53
2022-11-20T07:58:25.452Z,2.13
2022-11-20T08:01:13.087Z,2.43
2022-11-20T08:04:00.965Z,2.17
2022-11-20T08:06:48.170Z,2.10
2022-11-20T08:09:36.061Z,1.90
2022-11-20T08:12:41.915Z,2.20
2022-11-20T08:15:29.858Z,2.20
2022-11-20T08:18:33.692Z,2.00
2022-11-20T08:21:21.617Z,1.97
2022-11-20T08:24:09.999Z,2.07
2022-11-20T08:27:00.001Z,1.70
2022-11-20T08:29:47.242Z,1.90
2022-11-20T08:32:36.735Z,1.90
2022-11-20T08:35:24.608Z,2.30
2022-11-20T08:38:12.020Z,2.20
2022-11-20T08:41:22.284Z,1.90
2022-11-20T08:44:09.693Z,2.13
2022-11-20T08:46:58.595Z,1.47
2022-11-20T08:49:46.311Z,2.37
2022-11-20T08:52:39.699Z,2.10
2022-11-20T08:55:28.097Z,2.10
2022-11-20T08:58:15.519Z,1.87
2022-11-20T09:01:03.597Z,2.23
2022-11-20T09:03:51.401Z,2.00
2022-11-20T09:06:39.273Z,1.90
2022-11-20T09:09:26.677Z,2.00
2022-11-20T09:12:15.094Z,1.90
2022-11-20T09:15:02.805Z,1.63
2022-11-20T09:17:53.571Z,2.10
2022-11-20T09:20:41.002Z,2.03
2022-11-20T09:23:29.661Z,1.70
2022-11-20T09:26:17.697Z,1.90
2022-11-20T09:29:05.386Z,1.63
2022-11-20T09:31:53.041Z,1.53
2022-11-20T09:34:41.010Z,1.70
2022-11-20T09:37:28.420Z,1.97
2022-11-20T09:40:23.124Z,1.63
2022-11-20T09:43:22.871Z,1.60
2022-11-20T09:46:11.041Z,1.60
2022-11-20T09:49:01.603Z,1.70
2022-11-20T09:52:17.129Z,1.27
2022-11-20T09:55:05.726Z,1.60
2022-11-20T09:57:53.419Z,1.23
2022-11-20T10:00:41.385Z,1.17
2022-11-20T10:03:38.478Z,1.33
2022-11-20T10:06:36.686Z,1.10
2022-11-20T10:09:45.404Z,1.20
2022-11-20T10:12:53.873Z,1.33
2022-11-20T10:16:00.102Z,1.10
2022-11-20T10:18:59.969Z,1.37
2022-11-20T10:21:47.344Z,1.33
2022-11-20T10:24:57.285Z,1.20
2022-11-20T10:27:51.429Z,1.50
2022-11-20T10:30:42.465Z,1.50
2022-11-20T10:33:49.973Z,1.30
2022-11-20T10:36:43.887Z,1.30
2022-11-20T10:39:42.701Z,1.07
2022-11-20T10:42:40.029Z,1.33
2022-11-20T10:45:28.527Z,1.33
2022-11-20T10:48:19.454Z,1.10
2022-11-20T10:51:07.246Z,1.20
2022-11-20T10:54:04.931Z,1.20
2022-11-20T10:56:53.856Z,1.10
2022-11-20T10:59:46.997Z,1.27
2022-11-20T11:02:53.403Z,1.07
2022-11-20T11:05:42.754Z,1.50
2022-11-20T11:08:34.073Z,1.33
2022-11-20T11:11:25.670Z,1.20
2022-11-20T11:14:15.473Z,1.20
2022-11-20T11:17:02.865Z,1.30
2022-11-20T11:20:04.561Z,1.20
2022-11-20T11:22:56.124Z,1.27
2022-11-20T11:25:43.556Z,1.33
2022-11-20T11:28:31.069Z,1.40
2022-11-20T11:31:25.810Z,1.50
2022-11-20T11:34:17.648Z,1.40
2022-11-20T11:37:06.618Z,1.40
2022-11-20T11:40:16.483Z,1.30
2022-11-20T11:43:03.395Z,1.30
2022-11-20T11:46:00.516Z,1.37
2022-11-20T11:49:00.099Z,1.37
2022-11-20T11:52:00.167Z,1.40
2022-11-20T11:54:52.787Z,1.10
2022-11-20T11:57:43.220Z,1.20
2022-11-20T12:00:31.130Z,1.20
2022-11-20T12:03:27.097Z,1.23
2022-11-20T12:06:16.514Z,1.50
2022-11-20T12:09:05.978Z,1.40
2022-11-20T12:11:56.744Z,1.47
2022-11-20T12:14:46.757Z,1.10
2022-11-20T12:17:34.779Z,0.97
2022-11-20T12:20:24.081Z,1.20
2022-11-20T12:23:17.635Z,1.33
2022-11-20T12:26:09.888Z,1.07
2022-11-20T12:29:09.827Z,1.37
2022-11-20T12:32:16.405Z,1.30
2022-11-20T12:35:13.622Z,1.60
2022-11-20T12:38:01.494Z,0.90
2022-11-20T12:41:41.707Z,1.27
2022-11-20T12:44:48.384Z,1.37
2022-11-20T12:47:35.889Z,1.10
2022-11-20T12:50:23.548Z,1.40
2022-11-20T12:53:35.670Z,1.50
2022-11-20T12:56:41.065Z,1.60
2022-11-20T12:59:35.928Z,1.33
2022-11-20T13:02:42.416Z,1.63
2022-11-20T13:05:38.749Z,1.20
2022-11-20T13:08:27.166Z,1.43
2022-11-20T13:11:41.702Z,1.33
2022-11-20T13:14:38.736Z,1.80
2022-11-20T13:17:39.022Z,1.50
2022-11-20T13:20:26.909Z,1.90
2022-11-20T13:23:24.757Z,1.50
2022-11-20T13:26:30.161Z,1.80
2022-11-20T13:29:22.049Z,1.80
2022-11-20T13:32:17.224Z,1.60
2022-11-20T13:35:07.121Z,1.70
2022-11-20T13:38:01.981Z,1.90
2022-11-20T13:40:53.701Z,1.60
2022-11-20T13:43:45.476Z,1.97
2022-11-20T13:46:46.721Z,2.10
2022-11-20T13:49:38.911Z,1.83
2022-11-20T13:52:47.912Z,1.70
2022-11-20T13:55:35.335Z,1.83
2022-11-20T13:58:33.951Z,1.93
2022-11-20T14:01:23.133Z,2.40
2022-11-20T14:04:11.660Z,1.90
2022-11-20T14:06:59.803Z,1.83
2022-11-20T14:09:54.393Z,1.97
2022-11-20T14:12:41.912Z,1.60
2022-11-20T14:15:29.976Z,1.43
2022-11-20T14:18:22.810Z,1.80
2022-11-20T14:21:11.186Z,2.10
2022-11-20T14:24:05.269Z,1.83
2022-11-20T14:26:53.650Z,1.93
2022-11-20T14:29:42.466Z,1.87
2022-11-20T14:32:31.267Z,2.73
2022-11-20T14:35:22.245Z,1.63
2022-11-20T14:38:13.822Z,1.90
2022-11-20T14:41:11.319Z,1.77
2022-11-20T14:43:59.193Z,1.33
2022-11-20T14:46:46.561Z,1.93
2022-11-20T14:49:34.045Z,1.77
2022-11-20T14:52:26.633Z,1.00
2022-11-20T14:55:15.636Z,1.00
2022-11-20T14:58:23.516Z,1.30
2022-11-20T15:01:15.398Z,0.80
2022-11-20T15:04:07.050Z,1.30
2022-11-20T15:06:55.981Z,1.10
2022-11-20T15:09:43.461Z,1.43
2022-11-20T15:12:32.794Z,1.20
2022-11-20T15:15:27.740Z,1.30
2022-11-20T15:18:16.462Z,1.10
2022-11-20T15:21:04.972Z,1.60
2022-11-20T15:23:52.270Z,1.10
2022-11-20T15:26:43.986Z,1.10
2022-11-20T15:29:32.316Z,1.30
2022-11-20T15:32:19.774Z,1.20
2022-11-20T15:35:07.518Z,1.30
2022-11-20T15:37:54.988Z,1.10
2022-11-20T15:40:42.412Z,1.10
2022-11-20T15:43:29.644Z,1.20
2022-11-20T15:46:18.232Z,1.40
2022-11-20T15:49:06.752Z,1.27
2022-11-20T15:51:54.910Z,1.50
2022-11-20T15:54:42.300Z,1.87
2022-11-20T15:57:29.743Z,1.60
2022-11-20T16:00:23.240Z,1.83
2022-11-20T16:03:12.928Z,1.60
2022-11-20T16:06:00.137Z,1.90
2022-11-20T16:08:47.554Z,1.63
2022-11-20T16:11:37.373Z,1.50
2022-11-20T16:14:46.058Z,1.50
2022-11-20T16:17:43.429Z,1.37
2022-11-20T16:20:30.833Z,1.70
2022-11-20T16:23:18.804Z,1.77
2022-11-20T16:26:16.816Z,1.80
2022-11-20T16:29:06.012Z,1.93
2022-11-20T16:31:53.927Z,2.27
2022-11-20T16:34:41.804Z,2.40
2022-11-20T16:37:29.006Z,2.80
2022-11-20T16:40:16.512Z,2.67
2022-11-20T16:43:09.931Z,2.87
2022-11-20T16:45:57.830Z,5.47
2022-11-20T16:48:45.376Z,8.47
2022-11-20T16:51:35.058Z,4.93
2022-11-20T16:54:23.462Z,3.43
2022-11-20T16:57:10.950Z,3.73
2022-11-20T17:00:02.032Z,5.10
2022-11-20T17:02:50.328Z,3.67
2022-11-20T17:05:38.158Z,3.13
2022-11-20T17:08:25.857Z,3.13
2022-11-20T17:11:14.743Z,3.03
2022-11-20T17:14:03.856Z,2.60
2022-11-20T17:16:51.308Z,2.67
2022-11-20T17:19:38.540Z,2.27
2022-11-20T17:22:25.966Z,2.70
2022-11-20T17:25:13.363Z,2.93
2022-11-20T17:28:01.252Z,2.60
2022-11-20T17:30:48.440Z,2.97
2022-11-20T17:33:37.133Z,2.60
2022-11-20T17:36:25.005Z,2.37
2022-11-20T17:39:13.179Z,2.83
2022-11-20T17:42:19.134Z,5.20
2022-11-20T17:45:07.191Z,5.70
2022-11-20T17:47:54.386Z,4.63
2022-11-20T17:50:42.289Z,3.90
2022-11-20T17:53:30.736Z,4.27
2022-11-20T17:56:37.197Z,4.33
2022-11-20T17:59:24.897Z,3.53
2022-11-20T18:02:12.353Z,4.07
2022-11-20T18:05:00.265Z,4.03
2022-11-20T18:07:47.700Z,4.07
2022-11-20T18:10:35.712Z,3.77
2022-11-20T18:13:47.569Z,4.00
2022-11-20T18:16:36.970Z,3.90
2022-11-20T18:19:28.719Z,3.93
2022-11-20T18:22:20.283Z,3.13
2022-11-20T18:25:08.221Z,3.33
2022-11-20T18:27:56.370Z,3.60
2022-11-20T18:30:43.795Z,3.50
2022-11-20T18:33:31.200Z,4.10
2022-11-20T18:36:23.108Z,4.60
2022-11-20T18:39:11.743Z,3.80
2022-11-20T18:42:18.418Z,4.30
2022-11-20T18:45:06.330Z,3.60
2022-11-20T18:47:54.113Z,4.43
2022-11-20T18:50:41.486Z,4.30
2022-11-20T18:53:29.118Z,4.37
2022-11-20T18:56:16.522Z,4.13
2022-11-20T18:59:04.760Z,4.37
2022-11-20T19:01:52.239Z,4.53
2022-11-20T19:04:40.209Z,4.43
2022-11-20T19:07:27.781Z,4.33
2022-11-20T19:10:19.293Z,4.23
2022-11-20T19:13:07.954Z,3.93
2022-11-20T19:15:55.678Z,3.70
2022-11-20T19:18:45.342Z,4.07
2022-11-20T19:21:34.181Z,3.93
2022-11-20T19:24:22.665Z,3.70
2022-11-20T19:27:10.168Z,3.30
2022-11-20T19:30:03.767Z,3.13
2022-11-20T19:32:51.803Z,3.43
2022-11-20T19:35:39.253Z,3.40
2022-11-20T19:38:27.114Z,2.87
2022-11-20T19:41:15.610Z,3.30
2022-11-20T19:44:04.122Z,3.10
2022-11-20T19:46:51.563Z,3.50
2022-11-20T19:49:42.198Z,3.27
2022-11-20T19:52:29.629Z,3.63
2022-11-20T19:55:17.584Z,2.73
2022-11-20T19:58:05.475Z,2.90
2022-11-20T20:00:53.126Z,3.03
2022-11-20T20:03:41.145Z,2.40
2022-11-20T20:06:29.142Z,2.60
2022-11-20T20:09:16.999Z,2.50
2022-11-20T20:12:04.453Z,2.37
2022-11-20T20:14:52.344Z,2.60
2022-11-20T20:17:40.344Z,2.40
2022-11-20T20:20:28.244Z,2.13
2022-11-20T20:23:15.648Z,2.10
2022-11-20T20:26:03.850Z,2.13
2022-11-20T20:28:51.626Z,1.80
2022-11-20T20:31:39.085Z,2.30
2022-11-20T20:34:29.679Z,2.53
2022-11-20T20:37:17.469Z,2.13
2022-11-20T20:40:05.067Z,2.00
2022-11-20T20:42:52.517Z,2.20
2022-11-20T20:45:45.548Z,2.70
2022-11-20T20:48:33.407Z,1.97
2022-11-20T20:51:21.667Z,2.07
2022-11-20T20:54:09.112Z,1.77
2022-11-20T20:56:56.514Z,1.50
2022-11-20T20:59:44.393Z,1.70
2022-11-20T21:02:31.782Z,1.53
2022-11-20T21:05:19.708Z,1.70
2022-11-20T21:08:22.978Z,1.60
2022-11-20T21:11:12.970Z,1.60
2022-11-20T21:14:00.470Z,1.63
2022-11-20T21:16:48.450Z,1.37
2022-11-20T21:19:35.969Z,1.70
2022-11-20T21:22:23.708Z,1.57
2022-11-20T21:25:11.158Z,1.77
2022-11-20T21:27:59.090Z,1.57
2022-11-20T21:30:46.847Z,1.30
2022-11-20T21:33:44.156Z,1.40
2022-11-20T21:36:32.073Z,1.80
2022-11-20T21:39:22.168Z,1.50
2022-11-20T21:42:09.699Z,1.43
2022-11-20T21:44:57.351Z,1.30
2022-11-20T21:47:44.824Z,1.37
2022-11-20T21:50:32.983Z,1.30
2022-11-20T21:53:20.587Z,1.30
2022-11-20T21:56:08.961Z,1.07
2022-11-20T21:58:57.084Z,1.70
2022-11-20T22:01:44.738Z,1.50
2022-11-20T22:04:32.212Z,1.50
2022-11-20T22:07:20.149Z,1.37
2022-11-20T22:10:08.222Z,1.50
2022-11-20T22:13:18.457Z,1.40
2022-11-20T22:16:06.560Z,1.40
2022-11-20T22:18:55.828Z,1.60
2022-11-20T22:21:43.429Z,1.60
2022-11-20T22:24:31.350Z,1.83
2022-11-20T22:27:18.767Z,1.50
2022-11-20T22:30:06.973Z,2.00
2022-11-20T22:32:56.280Z,1.50
2022-11-20T22:35:44.210Z,1.93
2022-11-20T22:38:37.874Z,1.80
2022-11-20T22:41:28.072Z,1.43
2022-11-20T22:44:16.759Z,1.70
2022-11-20T22:47:10.086Z,1.27
2022-11-20T22:49:58.675Z,1.50
2022-11-20T22:52:46.592Z,1.00
2022-11-20T22:55:34.145Z,1.00
2022-11-20T22:58:22.163Z,1.20
2022-11-20T23:01:10.064Z,1.07
2022-11-20T23:03:59.116Z,1.00
2022-11-20T23:06:46.544Z,1.10
2022-11-20T23:09:34.553Z,1.10
2022-11-20T23:12:22.019Z,1.10
2022-11-20T23:15:09.545Z,1.13
2022-11-20T23:17:57.497Z,1.00
2022-11-20T23:20:45.421Z,1.00
2022-11-20T23:23:32.988Z,0.90
2022-11-20T23:26:22.001Z,0.67
2022-11-20T23:29:10.166Z,0.83
2022-11-20T23:31:58.073Z,0.70
2022-11-20T23:34:46.048Z,1.03
2022-11-20T23:37:33.966Z,0.90
2022-11-20T23:40:21.379Z,0.70
2022-11-20T23:43:15.486Z,0.80
2022-11-20T23:46:03.143Z,0.60
2022-11-20T23:48:51.052Z,0.80
2022-11-20T23:51:38.472Z,0.67
2022-11-20T23:54:26.632Z,0.67
2022-11-20T23:57:14.337Z,0.60
